createdAt,value
2017-05-14T00:00:09.007Z,69.27
2017-05-14T00:00:35.227Z,68.98
2017-05-14T00:01:01.319Z,69.27
2017-05-14T00:01:27.464Z,69.27
2017-05-14T00:01:53.561Z,69.27
2017-05-14T00:02:19.690Z,69.75
2017-05-14T00:02:45.789Z,69.56
2017-05-14T00:03:11.906Z,69.08
2017-05-14T00:03:38.015Z,69.18
2017-05-14T00:04:04.112Z,69.18
2017-05-14T00:04:30.232Z,69.08
2017-05-14T00:04:56.351Z,68.89
2017-05-14T00:05:22.479Z,69.18
2017-05-14T00:05:48.566Z,69.08
2017-05-14T00:06:14.686Z,69.56
2017-05-14T00:06:40.803Z,69.56
2017-05-14T00:07:06.934Z,69.56
2017-05-14T00:07:33.038Z,69.27
2017-05-14T00:07:59.154Z,69.46
2017-05-14T00:08:25.289Z,69.18
2017-05-14T00:08:51.445Z,69.18
2017-05-14T00:09:17.532Z,69.27
2017-05-14T00:09:43.656Z,69.18
2017-05-14T00:10:09.807Z,69.27
2017-05-14T00:10:35.921Z,69.46
2017-05-14T00:11:02.021Z,69.46
2017-05-14T00:11:28.136Z,69.27
2017-05-14T00:11:54.232Z,69.56
2017-05-14T00:12:20.337Z,69.56
2017-05-14T00:12:46.479Z,69.56
2017-05-14T00:13:12.604Z,69.75
2017-05-14T00:13:38.766Z,70.01
2017-05-14T00:14:04.882Z,69.91
2017-05-14T00:14:31.026Z,69.81
2017-05-14T00:14:57.161Z,69.95
2017-05-14T00:15:23.269Z,70.2
2017-05-14T00:15:49.369Z,70.58
2017-05-14T00:16:15.519Z,70.39
2017-05-14T00:16:41.629Z,70.39
2017-05-14T00:17:07.719Z,70.29
2017-05-14T00:17:33.853Z,70.01
2017-05-14T00:17:59.983Z,70.14
2017-05-14T00:18:26.136Z,70.1
2017-05-14T00:18:52.230Z,70.01
2017-05-14T00:19:18.350Z,69.81
2017-05-14T00:19:44.562Z,70.2
2017-05-14T00:20:10.715Z,70.39
2017-05-14T00:20:36.806Z,70.29
2017-05-14T00:21:02.943Z,70.39
2017-05-14T00:21:29.098Z,70.2
2017-05-14T00:21:55.128Z,70.29
2017-05-14T00:22:21.235Z,70.49
2017-05-14T00:22:47.397Z,70.2
2017-05-14T00:23:13.510Z,71.06
2017-05-14T00:23:39.639Z,70.39
2017-05-14T00:24:05.784Z,70.39
2017-05-14T00:24:31.919Z,71.06
2017-05-14T00:24:58.047Z,70.1
2017-05-14T00:25:24.163Z,70.39
2017-05-14T00:25:50.338Z,70.29
2017-05-14T00:26:16.428Z,70.87
2017-05-14T00:26:42.516Z,71.06
2017-05-14T00:27:08.642Z,70.49
2017-05-14T00:27:34.802Z,70.68
2017-05-14T00:28:00.894Z,70.29
2017-05-14T00:28:26.991Z,70.2
2017-05-14T00:28:53.153Z,70.39
2017-05-14T00:29:19.272Z,70.49
2017-05-14T00:29:45.429Z,70.68
2017-05-14T00:30:11.540Z,71.06
2017-05-14T00:30:37.638Z,70.97
2017-05-14T00:31:03.745Z,70.97
2017-05-14T00:31:29.836Z,70.68
2017-05-14T00:31:55.933Z,70.87
2017-05-14T00:32:22.039Z,70.78
2017-05-14T00:32:48.158Z,70.58
2017-05-14T00:33:14.298Z,70.2
2017-05-14T00:33:40.492Z,70.2
2017-05-14T00:34:06.617Z,70.2
2017-05-14T00:34:32.706Z,70.39
2017-05-14T00:34:58.870Z,70.39
2017-05-14T00:35:24.986Z,70.2
2017-05-14T00:35:51.091Z,70.68
2017-05-14T00:36:17.187Z,70.29
2017-05-14T00:36:43.301Z,70.29
2017-05-14T00:37:09.435Z,70.29
2017-05-14T00:37:35.530Z,70.1
2017-05-14T00:38:01.647Z,70.1
2017-05-14T00:38:27.752Z,70.29
2017-05-14T00:38:53.908Z,70.49
2017-05-14T00:39:20.024Z,70.29
2017-05-14T00:39:46.127Z,69.91
2017-05-14T00:40:12.260Z,70.23
2017-05-14T00:40:38.350Z,70.1
2017-05-14T00:41:04.475Z,70.68
2017-05-14T00:41:30.584Z,71.06
2017-05-14T00:41:56.704Z,70.87
2017-05-14T00:42:22.801Z,71.06
2017-05-14T00:42:48.905Z,70.87
2017-05-14T00:43:15.049Z,70.78
2017-05-14T00:43:41.206Z,70.87
2017-05-14T00:44:07.328Z,71.45
2017-05-14T00:44:33.456Z,71.06
2017-05-14T00:44:59.544Z,71.35
2017-05-14T00:45:25.651Z,71.83
2017-05-14T00:45:51.777Z,71.83
2017-05-14T00:46:17.878Z,71.93
2017-05-14T00:46:43.970Z,71.64
2017-05-14T00:47:10.060Z,71.55
2017-05-14T00:47:36.171Z,71.83
2017-05-14T00:48:02.347Z,71.73
2017-05-14T00:48:28.462Z,71.73
2017-05-14T00:48:54.623Z,71.73
2017-05-14T00:49:20.803Z,71.83
2017-05-14T00:49:46.893Z,71.93
2017-05-14T00:50:13.022Z,71.73
2017-05-14T00:50:39.157Z,72.02
2017-05-14T00:51:05.273Z,71.55
2017-05-14T00:51:31.372Z,71.64
2017-05-14T00:51:57.488Z,71.64
2017-05-14T00:52:23.620Z,71.73
2017-05-14T00:52:49.803Z,71.83
2017-05-14T00:53:15.919Z,71.93
2017-05-14T00:53:42.105Z,71.45
2017-05-14T00:54:08.269Z,71.64
2017-05-14T00:54:34.355Z,71.83
2017-05-14T00:55:00.509Z,71.83
2017-05-14T00:55:26.613Z,71.55
2017-05-14T00:55:52.706Z,71.73
2017-05-14T00:56:18.803Z,71.64
2017-05-14T00:56:44.908Z,71.73
2017-05-14T00:57:11.001Z,71.73
2017-05-14T00:57:37.107Z,71.93
2017-05-14T00:58:03.195Z,71.45
2017-05-14T00:58:29.294Z,71.64
2017-05-14T00:58:55.401Z,71.83
2017-05-14T00:59:21.491Z,71.73
2017-05-14T00:59:47.613Z,71.83
2017-05-14T01:00:13.718Z,71.55
2017-05-14T01:00:39.814Z,71.83
2017-05-14T01:01:05.928Z,72.02
2017-05-14T01:01:32.065Z,71.25
2017-05-14T01:01:58.164Z,71.45
2017-05-14T01:02:24.282Z,71.45
2017-05-14T01:02:50.417Z,71.64
2017-05-14T01:03:16.539Z,72.02
2017-05-14T01:03:42.645Z,71.93
2017-05-14T01:04:08.766Z,71.55
2017-05-14T01:04:34.855Z,71.64
2017-05-14T01:05:00.993Z,71.55
2017-05-14T01:05:27.116Z,70.87
2017-05-14T01:05:53.229Z,71.25
2017-05-14T01:06:19.362Z,70.97
2017-05-14T01:06:45.489Z,70.87
2017-05-14T01:07:11.580Z,70.78
2017-05-14T01:07:37.680Z,70.87
2017-05-14T01:08:03.842Z,70.97
2017-05-14T01:08:29.986Z,70.97
2017-05-14T01:08:56.109Z,70.87
2017-05-14T01:09:22.248Z,70.97
2017-05-14T01:09:48.384Z,70.97
2017-05-14T01:10:14.482Z,70.97
2017-05-14T01:10:40.595Z,71.06
2017-05-14T01:11:06.725Z,70.87
2017-05-14T01:11:32.860Z,70.78
2017-05-14T01:11:58.948Z,70.78
2017-05-14T01:12:25.049Z,71.25
2017-05-14T01:12:51.183Z,70.97
2017-05-14T01:13:17.272Z,71.06
2017-05-14T01:13:43.393Z,70.87
2017-05-14T01:14:09.515Z,70.87
2017-05-14T01:14:35.634Z,71.16
2017-05-14T01:15:01.766Z,71.16
2017-05-14T01:15:27.882Z,71.06
2017-05-14T01:15:54.031Z,71.55
2017-05-14T01:16:20.137Z,71.55
2017-05-14T01:16:46.253Z,71.73
2017-05-14T01:17:12.373Z,71.83
2017-05-14T01:17:38.506Z,71.83
2017-05-14T01:18:04.625Z,71.83
2017-05-14T01:18:30.741Z,71.73
2017-05-14T01:18:56.851Z,71.93
2017-05-14T01:19:22.976Z,71.45
2017-05-14T01:19:49.131Z,71.64
2017-05-14T01:20:15.226Z,71.64
2017-05-14T01:20:41.345Z,71.55
2017-05-14T01:21:07.478Z,71.93
2017-05-14T01:21:33.574Z,71.93
2017-05-14T01:21:59.690Z,71.73
2017-05-14T01:22:25.894Z,71.93
2017-05-14T01:22:51.976Z,71.83
2017-05-14T01:23:18.089Z,71.83
2017-05-14T01:23:44.221Z,72.02
2017-05-14T01:24:10.351Z,71.83
2017-05-14T01:24:36.440Z,71.83
2017-05-14T01:25:02.540Z,71.51
2017-05-14T01:25:28.646Z,71.93
2017-05-14T01:25:54.763Z,71.98
2017-05-14T01:26:20.887Z,71.93
2017-05-14T01:26:47.013Z,71.64
2017-05-14T01:27:13.101Z,72.02
2017-05-14T01:27:39.222Z,71.64
2017-05-14T01:28:05.356Z,71.83
2017-05-14T01:28:31.450Z,72.02
2017-05-14T01:28:57.539Z,71.83
2017-05-14T01:29:23.700Z,71.73
2017-05-14T01:29:49.854Z,71.73
2017-05-14T01:30:15.946Z,71.73
2017-05-14T01:30:42.078Z,71.73
2017-05-14T01:31:08.173Z,71.93
2017-05-14T01:31:34.310Z,71.55
2017-05-14T01:32:00.403Z,71.64
2017-05-14T01:32:26.520Z,71.73
2017-05-14T01:32:52.686Z,71.83
2017-05-14T01:33:18.784Z,71.83
2017-05-14T01:33:44.898Z,71.73
2017-05-14T01:34:11.031Z,71.83
2017-05-14T01:34:37.183Z,71.93
2017-05-14T01:35:03.273Z,71.93
2017-05-14T01:35:29.377Z,71.73
2017-05-14T01:35:55.510Z,71.73
2017-05-14T01:36:21.606Z,71.93
2017-05-14T01:36:47.700Z,71.83
2017-05-14T01:37:13.790Z,71.93
2017-05-14T01:37:39.897Z,71.55
2017-05-14T01:38:05.995Z,71.45
2017-05-14T01:38:32.090Z,71.55
2017-05-14T01:38:58.214Z,71.55
2017-05-14T01:39:24.349Z,71.45
2017-05-14T01:39:50.491Z,71.45
2017-05-14T01:40:16.614Z,71.06
2017-05-14T01:40:42.746Z,70.97
2017-05-14T01:41:08.859Z,71.35
2017-05-14T01:41:34.980Z,71.25
2017-05-14T01:42:01.078Z,70.97
2017-05-14T01:42:27.179Z,70.87
2017-05-14T01:42:53.285Z,71.35
2017-05-14T01:43:19.419Z,71.16
2017-05-14T01:43:45.544Z,71.45
2017-05-14T01:44:11.650Z,71.16
2017-05-14T01:44:37.791Z,71.06
2017-05-14T01:45:03.915Z,71.03
2017-05-14T01:45:30.048Z,71.06
2017-05-14T01:45:56.167Z,71.25
2017-05-14T01:46:22.259Z,71.55
2017-05-14T01:46:48.367Z,71.45
2017-05-14T01:47:14.463Z,71.06
2017-05-14T01:47:40.594Z,71.16
2017-05-14T01:48:06.684Z,71.25
2017-05-14T01:48:32.790Z,71.25
2017-05-14T01:48:58.916Z,71.45
2017-05-14T01:49:25.068Z,71.55
2017-05-14T01:49:51.204Z,71.25
2017-05-14T01:50:17.311Z,71.7
2017-05-14T01:50:43.438Z,71.83
2017-05-14T01:51:09.579Z,71.73
2017-05-14T01:51:35.708Z,71.93
2017-05-14T01:52:01.809Z,71.83
2017-05-14T01:52:27.923Z,71.93
2017-05-14T01:52:54.101Z,71.93
2017-05-14T01:53:20.219Z,71.83
2017-05-14T01:53:46.326Z,71.64
2017-05-14T01:54:12.447Z,71.51
2017-05-14T01:54:38.537Z,71.64
2017-05-14T01:55:04.644Z,72.02
2017-05-14T01:55:30.771Z,72.37
2017-05-14T01:55:56.861Z,71.61
2017-05-14T01:56:22.987Z,72.18
2017-05-14T01:56:49.093Z,71.93
2017-05-14T01:57:15.207Z,71.89
2017-05-14T01:57:41.335Z,72.18
2017-05-14T01:58:07.496Z,72.37
2017-05-14T01:58:33.585Z,72.56
2017-05-14T01:58:59.717Z,72.66
2017-05-14T01:59:25.830Z,72.66
2017-05-14T01:59:51.958Z,72.66
2017-05-14T02:00:18.094Z,72.18
2017-05-14T02:00:44.181Z,72.28
2017-05-14T02:01:10.304Z,72.47
2017-05-14T02:01:36.411Z,72.47
2017-05-14T02:02:02.526Z,72.85
2017-05-14T02:02:28.670Z,72.85
2017-05-14T02:02:54.778Z,72.66
2017-05-14T02:03:20.874Z,72.66
2017-05-14T02:03:46.989Z,72.08
2017-05-14T02:04:13.081Z,72.85
2017-05-14T02:04:39.204Z,72.85
2017-05-14T02:05:05.338Z,72.66
2017-05-14T02:05:31.454Z,72.56
2017-05-14T02:05:57.550Z,72.47
2017-05-14T02:06:23.685Z,72.56
2017-05-14T02:06:49.802Z,72.66
2017-05-14T02:07:15.892Z,72.66
2017-05-14T02:07:41.999Z,72.56
2017-05-14T02:08:08.096Z,72.56
2017-05-14T02:08:34.185Z,72.75
2017-05-14T02:09:00.374Z,72.56
2017-05-14T02:09:26.527Z,72.47
2017-05-14T02:09:52.617Z,72.08
2017-05-14T02:10:18.718Z,72.75
2017-05-14T02:10:44.884Z,72.08
2017-05-14T02:11:10.995Z,72.66
2017-05-14T02:11:37.093Z,72.56
2017-05-14T02:12:03.198Z,72.28
2017-05-14T02:12:29.291Z,72.37
2017-05-14T02:12:55.410Z,72.47
2017-05-14T02:13:21.543Z,72.56
2017-05-14T02:13:47.666Z,72.91
2017-05-14T02:14:13.756Z,73.24
2017-05-14T02:14:39.887Z,72.85
2017-05-14T02:15:05.981Z,73.14
2017-05-14T02:15:32.081Z,73.68
2017-05-14T02:15:58.198Z,73.58
2017-05-14T02:16:24.343Z,73.3
2017-05-14T02:16:50.523Z,73.49
2017-05-14T02:17:16.595Z,73.58
2017-05-14T02:17:42.686Z,73.58
2017-05-14T02:18:08.848Z,73.49
2017-05-14T02:18:34.973Z,73.97
2017-05-14T02:19:01.063Z,74.44
2017-05-14T02:19:27.275Z,74.93
2017-05-14T02:19:53.403Z,74.64
2017-05-14T02:20:19.540Z,74.83
2017-05-14T02:20:45.693Z,74.83
2017-05-14T02:21:11.782Z,75.21
2017-05-14T02:21:37.893Z,75.5
2017-05-14T02:22:04.014Z,75.4
2017-05-14T02:22:30.106Z,75.65
2017-05-14T02:22:56.212Z,75.21
2017-05-14T02:23:22.338Z,75.21
2017-05-14T02:23:48.504Z,75.7
2017-05-14T02:24:14.633Z,75.5
2017-05-14T02:24:40.819Z,75.12
2017-05-14T02:25:06.905Z,75.27
2017-05-14T02:25:33.007Z,75.4
2017-05-14T02:25:59.111Z,75.7
2017-05-14T02:26:25.202Z,75.5
2017-05-14T02:26:51.331Z,75.6
2017-05-14T02:27:17.447Z,75.7
2017-05-14T02:27:43.579Z,75.56
2017-05-14T02:28:09.711Z,75.7
2017-05-14T02:28:35.797Z,75.46
2017-05-14T02:29:01.934Z,76.23
2017-05-14T02:29:28.098Z,76.52
2017-05-14T02:29:54.211Z,75.75
2017-05-14T02:30:20.331Z,75.4
2017-05-14T02:30:46.467Z,75.18
2017-05-14T02:31:12.610Z,75.65
2017-05-14T02:31:38.724Z,75.37
2017-05-14T02:32:04.828Z,75.21
2017-05-14T02:32:30.928Z,75.5
2017-05-14T02:32:57.031Z,75.56
2017-05-14T02:33:23.121Z,75.5
2017-05-14T02:33:49.243Z,75.4
2017-05-14T02:34:15.350Z,75.6
2017-05-14T02:34:41.443Z,75.65
2017-05-14T02:35:07.531Z,75.46
2017-05-14T02:35:33.668Z,75.85
2017-05-14T02:35:59.762Z,75.95
2017-05-14T02:36:25.854Z,75.65
2017-05-14T02:36:51.958Z,76.04
2017-05-14T02:37:18.086Z,76.23
2017-05-14T02:37:44.213Z,75.75
2017-05-14T02:38:10.305Z,76.42
2017-05-14T02:38:36.417Z,76.32
2017-05-14T02:39:02.580Z,76.52
2017-05-14T02:39:28.676Z,76.14
2017-05-14T02:39:54.790Z,76.42
2017-05-14T02:40:20.920Z,76.32
2017-05-14T02:40:47.019Z,76.42
2017-05-14T02:41:13.107Z,76.23
2017-05-14T02:41:39.208Z,76.32
2017-05-14T02:42:05.315Z,76.42
2017-05-14T02:42:31.400Z,76.23
2017-05-14T02:42:57.550Z,76.62
2017-05-14T02:43:23.643Z,75.95
2017-05-14T02:43:49.749Z,76.23
2017-05-14T02:44:15.905Z,76.32
2017-05-14T02:44:42.043Z,76.14
2017-05-14T02:45:08.214Z,76.32
2017-05-14T02:45:34.330Z,76.23
2017-05-14T02:46:00.489Z,76.62
2017-05-14T02:46:26.586Z,76.32
2017-05-14T02:46:52.693Z,76.42
2017-05-14T02:47:18.783Z,75.95
2017-05-14T02:47:44.930Z,75.95
2017-05-14T02:48:11.063Z,76.14
2017-05-14T02:48:37.183Z,76.17
2017-05-14T02:49:03.342Z,76.23
2017-05-14T02:49:29.479Z,76.14
2017-05-14T02:49:55.656Z,76.62
2017-05-14T02:50:21.762Z,76.23
2017-05-14T02:50:47.876Z,76.52
2017-05-14T02:51:14.021Z,76.62
2017-05-14T02:51:40.128Z,76.23
2017-05-14T02:52:06.222Z,76.14
2017-05-14T02:52:32.334Z,76.23
2017-05-14T02:52:58.524Z,76.23
2017-05-14T02:53:24.649Z,76.23
2017-05-14T02:53:50.764Z,76.23
2017-05-14T02:54:16.900Z,76.62
2017-05-14T02:54:43.082Z,76.04
2017-05-14T02:55:09.219Z,76.62
2017-05-14T02:55:35.325Z,76.23
2017-05-14T02:56:01.482Z,76.42
2017-05-14T02:56:27.570Z,76.23
2017-05-14T02:56:53.723Z,76.32
2017-05-14T02:57:19.883Z,76.42
2017-05-14T02:57:46.026Z,76.42
2017-05-14T02:58:12.170Z,76.62
2017-05-14T02:58:38.301Z,76.81
2017-05-14T02:59:04.447Z,77.38
2017-05-14T02:59:30.610Z,77.09
2017-05-14T02:59:56.742Z,77.19
2017-05-14T03:00:22.842Z,76.62
2017-05-14T03:00:49.045Z,76.62
2017-05-14T03:01:15.081Z,76.62
2017-05-14T03:01:41.178Z,77.09
2017-05-14T03:02:07.394Z,76.62
2017-05-14T03:02:33.487Z,76.62
2017-05-14T03:02:59.628Z,76.81
2017-05-14T03:03:25.736Z,76.71
2017-05-14T03:03:51.835Z,76.62
2017-05-14T03:04:17.949Z,76.71
2017-05-14T03:04:44.107Z,76.71
2017-05-14T03:05:10.263Z,76.9
2017-05-14T03:05:36.384Z,76.9
2017-05-14T03:06:02.478Z,77.63
2017-05-14T03:06:28.591Z,77.48
2017-05-14T03:06:54.700Z,77.29
2017-05-14T03:07:20.824Z,77.06
2017-05-14T03:07:46.963Z,77.25
2017-05-14T03:08:13.089Z,77.63
2017-05-14T03:08:39.218Z,77.44
2017-05-14T03:09:05.382Z,77.25
2017-05-14T03:09:31.484Z,77.63
2017-05-14T03:09:57.621Z,77.63
2017-05-14T03:10:23.731Z,77.48
2017-05-14T03:10:49.860Z,77.53
2017-05-14T03:11:15.978Z,77.53
2017-05-14T03:11:42.083Z,77.82
2017-05-14T03:12:08.184Z,78.11
2017-05-14T03:12:34.275Z,78.3
2017-05-14T03:13:00.379Z,78.02
2017-05-14T03:13:26.514Z,78.02
2017-05-14T03:13:52.624Z,77.92
2017-05-14T03:14:18.723Z,78.2
2017-05-14T03:14:44.857Z,78.3
2017-05-14T03:15:10.971Z,77.92
2017-05-14T03:15:37.092Z,78.11
2017-05-14T03:16:03.546Z,78.11
2017-05-14T03:16:29.691Z,78.02
2017-05-14T03:16:55.798Z,77.82
2017-05-14T03:17:21.906Z,78.2
2017-05-14T03:17:48.004Z,78.3
2017-05-14T03:18:14.135Z,78.2
2017-05-14T03:18:40.226Z,78.11
2017-05-14T03:19:06.348Z,77.92
2017-05-14T03:19:32.481Z,78.11
2017-05-14T03:19:58.604Z,77.73
2017-05-14T03:20:24.719Z,78.3
2017-05-14T03:20:50.828Z,77.92
2017-05-14T03:21:16.979Z,77.73
2017-05-14T03:21:43.069Z,77.82
2017-05-14T03:22:09.255Z,77.63
2017-05-14T03:22:35.375Z,77.92
2017-05-14T03:23:01.481Z,78.11
2017-05-14T03:23:27.602Z,77.82
2017-05-14T03:23:53.790Z,77.92
2017-05-14T03:24:19.926Z,78.11
2017-05-14T03:24:46.074Z,77.82
2017-05-14T03:25:12.163Z,78.2
2017-05-14T03:25:38.270Z,78.02
2017-05-14T03:26:04.369Z,78.3
2017-05-14T03:26:30.459Z,78.11
2017-05-14T03:26:56.562Z,78.59
2017-05-14T03:27:22.668Z,78.59
2017-05-14T03:27:48.785Z,78.4
2017-05-14T03:28:14.883Z,78.2
2017-05-14T03:28:40.996Z,78.2
2017-05-14T03:29:07.102Z,78.78
2017-05-14T03:29:33.201Z,78.78
2017-05-14T03:29:59.292Z,78.4
2017-05-14T03:30:25.396Z,78.49
2017-05-14T03:30:51.530Z,78.78
2017-05-14T03:31:17.617Z,78.69
2017-05-14T03:31:43.715Z,78.69
2017-05-14T03:32:09.820Z,78.78
2017-05-14T03:32:35.938Z,78.78
2017-05-14T03:33:02.082Z,78.2
2017-05-14T03:33:28.207Z,78.78
2017-05-14T03:33:54.362Z,78.69
2017-05-14T03:34:20.526Z,78.78
2017-05-14T03:34:46.636Z,78.59
2017-05-14T03:35:12.732Z,78.88
2017-05-14T03:35:38.839Z,79.13
2017-05-14T03:36:04.977Z,79.26
2017-05-14T03:36:31.075Z,78.93
2017-05-14T03:36:57.179Z,79.07
2017-05-14T03:37:23.329Z,79.07
2017-05-14T03:37:49.443Z,79.26
2017-05-14T03:38:15.577Z,79.07
2017-05-14T03:38:41.697Z,79.07
2017-05-14T03:39:07.838Z,78.88
2017-05-14T03:39:33.973Z,79.07
2017-05-14T03:40:00.127Z,78.78
2017-05-14T03:40:26.217Z,78.69
2017-05-14T03:40:52.325Z,78.78
2017-05-14T03:41:18.482Z,78.88
2017-05-14T03:41:44.595Z,78.2
2017-05-14T03:42:10.695Z,78.69
2017-05-14T03:42:36.829Z,78.69
2017-05-14T03:43:02.966Z,78.4
2017-05-14T03:43:29.062Z,78.49
2017-05-14T03:43:55.222Z,78.78
2017-05-14T03:44:21.339Z,78.59
2017-05-14T03:44:47.521Z,78.69
2017-05-14T03:45:13.607Z,78.69
2017-05-14T03:45:39.724Z,78.4
2017-05-14T03:46:05.836Z,78.59
2017-05-14T03:46:31.928Z,78.49
2017-05-14T03:46:58.025Z,78.02
2017-05-14T03:47:24.127Z,77.82
2017-05-14T03:47:50.246Z,78.69
2017-05-14T03:48:16.335Z,78.3
2017-05-14T03:48:42.501Z,78.4
2017-05-14T03:49:08.624Z,78.4
2017-05-14T03:49:34.765Z,78.49
2017-05-14T03:50:00.894Z,78.2
2017-05-14T03:50:27.011Z,78.97
2017-05-14T03:50:53.117Z,78.02
2017-05-14T03:51:19.209Z,78.2
2017-05-14T03:51:45.299Z,78.69
2017-05-14T03:52:11.433Z,78.11
2017-05-14T03:52:37.528Z,78.3
2017-05-14T03:53:03.644Z,78.2
2017-05-14T03:53:29.778Z,78.59
2017-05-14T03:53:55.905Z,78.4
2017-05-14T03:54:21.994Z,78.49
2017-05-14T03:54:48.147Z,78.69
2017-05-14T03:55:14.251Z,78.69
2017-05-14T03:55:40.345Z,78.59
2017-05-14T03:56:06.467Z,78.69
2017-05-14T03:56:32.557Z,78.4
2017-05-14T03:56:58.662Z,78.69
2017-05-14T03:57:24.788Z,78.78
2017-05-14T03:57:50.901Z,78.78
2017-05-14T03:58:17.056Z,78.78
2017-05-14T03:58:43.163Z,78.88
2017-05-14T03:59:09.273Z,79.45
2017-05-14T03:59:35.376Z,79.26
2017-05-14T04:00:01.507Z,79.74
2017-05-14T04:00:27.623Z,79.55
2017-05-14T04:00:53.719Z,79.55
2017-05-14T04:01:19.839Z,79.55
2017-05-14T04:01:45.941Z,79.45
2017-05-14T04:02:12.047Z,79.55
2017-05-14T04:02:38.187Z,80.08
2017-05-14T04:03:04.335Z,80.12
2017-05-14T04:03:30.469Z,80.08
2017-05-14T04:03:56.558Z,79.83
2017-05-14T04:04:22.652Z,79.64
2017-05-14T04:04:48.786Z,79.55
2017-05-14T04:05:14.906Z,79.7
2017-05-14T04:05:40.995Z,80.12
2017-05-14T04:06:07.157Z,79.93
2017-05-14T04:06:33.281Z,79.99
2017-05-14T04:06:59.384Z,79.99
2017-05-14T04:07:25.475Z,80.47
2017-05-14T04:07:51.597Z,80.27
2017-05-14T04:08:17.727Z,80.41
2017-05-14T04:08:43.849Z,80.47
2017-05-14T04:09:10.012Z,79.99
2017-05-14T04:09:36.121Z,80.18
2017-05-14T04:10:02.270Z,80.27
2017-05-14T04:10:28.360Z,80.27
2017-05-14T04:10:54.494Z,80.08
2017-05-14T04:11:20.620Z,79.89
2017-05-14T04:11:46.701Z,80.08
2017-05-14T04:12:12.802Z,79.93
2017-05-14T04:12:38.917Z,80.37
2017-05-14T04:13:05.081Z,79.83
2017-05-14T04:13:31.209Z,79.8
2017-05-14T04:13:57.349Z,79.89
2017-05-14T04:14:23.455Z,79.74
2017-05-14T04:14:49.582Z,79.8
2017-05-14T04:15:15.673Z,80.37
2017-05-14T04:15:41.801Z,79.89
2017-05-14T04:16:07.907Z,80.47
2017-05-14T04:16:34.020Z,79.7
2017-05-14T04:17:00.197Z,79.89
2017-05-14T04:17:26.303Z,80.18
2017-05-14T04:17:52.440Z,80.37
2017-05-14T04:18:18.571Z,80.27
2017-05-14T04:18:44.662Z,80.03
2017-05-14T04:19:10.815Z,79.7
2017-05-14T04:19:36.976Z,80.03
2017-05-14T04:20:03.135Z,79.93
2017-05-14T04:20:29.236Z,79.93
2017-05-14T04:20:55.394Z,79.83
2017-05-14T04:21:21.489Z,79.7
2017-05-14T04:21:47.578Z,79.8
2017-05-14T04:22:13.712Z,80.08
2017-05-14T04:22:39.830Z,79.93
2017-05-14T04:23:05.970Z,79.93
2017-05-14T04:23:32.134Z,79.7
2017-05-14T04:23:58.339Z,79.8
2017-05-14T04:24:24.480Z,80.27
2017-05-14T04:24:50.614Z,80.37
2017-05-14T04:25:16.714Z,80.27
2017-05-14T04:25:42.807Z,80.18
2017-05-14T04:26:08.929Z,80.18
2017-05-14T04:26:35.035Z,80.18
2017-05-14T04:27:01.143Z,80.27
2017-05-14T04:27:27.296Z,79.99
2017-05-14T04:27:53.452Z,80.18
2017-05-14T04:28:19.569Z,79.99
2017-05-14T04:28:45.685Z,80.37
2017-05-14T04:29:11.782Z,80.66
2017-05-14T04:29:37.910Z,80.37
2017-05-14T04:30:04.041Z,80.56
2017-05-14T04:30:30.129Z,80.47
2017-05-14T04:30:56.230Z,80.76
2017-05-14T04:31:22.337Z,80.27
2017-05-14T04:31:48.451Z,80.47
2017-05-14T04:32:14.546Z,80.94
2017-05-14T04:32:40.709Z,80.47
2017-05-14T04:33:06.800Z,80.66
2017-05-14T04:33:32.940Z,80.56
2017-05-14T04:33:59.078Z,80.56
2017-05-14T04:34:25.172Z,80.47
2017-05-14T04:34:51.273Z,80.47
2017-05-14T04:35:17.389Z,80.47
2017-05-14T04:35:43.483Z,79.89
2017-05-14T04:36:09.616Z,79.99
2017-05-14T04:36:35.710Z,79.99
2017-05-14T04:37:01.798Z,80.32
2017-05-14T04:37:27.905Z,80.27
2017-05-14T04:37:54.031Z,80.27
2017-05-14T04:38:20.145Z,80.51
2017-05-14T04:38:46.250Z,80.32
2017-05-14T04:39:12.379Z,79.83
2017-05-14T04:39:38.515Z,80.03
2017-05-14T04:40:04.671Z,80.32
2017-05-14T04:40:30.787Z,80.32
2017-05-14T04:40:56.895Z,79.64
2017-05-14T04:41:22.991Z,79.83
2017-05-14T04:41:49.080Z,79.74
2017-05-14T04:42:15.213Z,80.03
2017-05-14T04:42:41.313Z,79.55
2017-05-14T04:43:07.453Z,79.55
2017-05-14T04:43:33.556Z,79.36
2017-05-14T04:43:59.687Z,79.26
2017-05-14T04:44:25.774Z,79.64
2017-05-14T04:44:51.873Z,79.45
2017-05-14T04:45:18.007Z,79.45
2017-05-14T04:45:44.099Z,79.83
2017-05-14T04:46:10.196Z,79.74
2017-05-14T04:46:36.328Z,79.55
2017-05-14T04:47:02.522Z,79.55
2017-05-14T04:47:28.610Z,79.45
2017-05-14T04:47:54.748Z,79.55
2017-05-14T04:48:20.921Z,79.45
2017-05-14T04:48:47.011Z,79.07
2017-05-14T04:49:13.117Z,80.03
2017-05-14T04:49:39.215Z,79.64
2017-05-14T04:50:05.356Z,80.51
2017-05-14T04:50:31.457Z,80.22
2017-05-14T04:50:57.563Z,80.37
2017-05-14T04:51:23.656Z,80.22
2017-05-14T04:51:49.779Z,80.22
2017-05-14T04:52:15.873Z,80.32
2017-05-14T04:52:41.978Z,80.18
2017-05-14T04:53:08.078Z,80.18
2017-05-14T04:53:34.192Z,80.7
2017-05-14T04:54:00.294Z,80.22
2017-05-14T04:54:26.399Z,80.6
2017-05-14T04:54:52.490Z,80.41
2017-05-14T04:55:18.587Z,80.32
2017-05-14T04:55:44.692Z,80.22
2017-05-14T04:56:10.782Z,80.51
2017-05-14T04:56:36.876Z,80.41
2017-05-14T04:57:02.972Z,80.51
2017-05-14T04:57:29.099Z,80.51
2017-05-14T04:57:55.233Z,79.93
2017-05-14T04:58:21.350Z,80.12
2017-05-14T04:58:47.502Z,80.22
2017-05-14T04:59:13.635Z,79.83
2017-05-14T04:59:39.725Z,79.83
2017-05-14T05:00:05.843Z,80.12
2017-05-14T05:00:31.948Z,79.64
2017-05-14T05:00:58.041Z,79.45
2017-05-14T05:01:24.157Z,79.07
2017-05-14T05:01:50.263Z,79.39
2017-05-14T05:02:16.388Z,79.16
2017-05-14T05:02:42.517Z,79.11
2017-05-14T05:03:08.631Z,78.53
2017-05-14T05:03:34.728Z,78.72
2017-05-14T05:04:00.862Z,78.63
2017-05-14T05:04:26.979Z,78.92
2017-05-14T05:04:53.093Z,78.72
2017-05-14T05:05:19.226Z,78.72
2017-05-14T05:05:45.324Z,78.53
2017-05-14T05:06:11.413Z,78.25
2017-05-14T05:06:37.545Z,77.95
2017-05-14T05:07:03.642Z,77.76
2017-05-14T05:07:29.735Z,77.95
2017-05-14T05:07:55.890Z,78.05
2017-05-14T05:08:21.996Z,77.86
2017-05-14T05:08:48.085Z,78.05
2017-05-14T05:09:14.237Z,78.25
2017-05-14T05:09:40.343Z,78.15
2017-05-14T05:10:06.485Z,77.95
2017-05-14T05:10:32.582Z,77.86
2017-05-14T05:10:58.718Z,77.95
2017-05-14T05:11:24.839Z,78.34
2017-05-14T05:11:50.926Z,78.15
2017-05-14T05:12:17.036Z,78.15
2017-05-14T05:12:43.130Z,78.05
2017-05-14T05:13:09.268Z,78.15
2017-05-14T05:13:35.456Z,78.05
2017-05-14T05:14:01.550Z,78.15
2017-05-14T05:14:27.683Z,78.34
2017-05-14T05:14:53.779Z,77.86
2017-05-14T05:15:19.895Z,77.76
2017-05-14T05:15:46.032Z,77.76
2017-05-14T05:16:12.156Z,78.34
2017-05-14T05:16:38.269Z,77.95
2017-05-14T05:17:04.402Z,77.76
2017-05-14T05:17:30.530Z,77.48
2017-05-14T05:17:56.643Z,77.09
2017-05-14T05:18:22.746Z,77.09
2017-05-14T05:18:48.852Z,77.33
2017-05-14T05:19:15.017Z,77.04
2017-05-14T05:19:41.165Z,76.65
2017-05-14T05:20:07.282Z,76.9
2017-05-14T05:20:33.413Z,76.75
2017-05-14T05:20:59.512Z,76.65
2017-05-14T05:21:25.601Z,76.65
2017-05-14T05:21:51.729Z,77.04
2017-05-14T05:22:17.833Z,76.84
2017-05-14T05:22:43.945Z,76.56
2017-05-14T05:23:10.074Z,76.17
2017-05-14T05:23:36.179Z,76.37
2017-05-14T05:24:02.335Z,76.37
2017-05-14T05:24:28.413Z,76.37
2017-05-14T05:24:54.508Z,76.32
2017-05-14T05:25:20.610Z,75.7
2017-05-14T05:25:46.714Z,76.07
2017-05-14T05:26:12.851Z,76.65
2017-05-14T05:26:38.951Z,75.4
2017-05-14T05:27:05.086Z,75.5
2017-05-14T05:27:31.176Z,75.79
2017-05-14T05:27:57.275Z,75.7
2017-05-14T05:28:23.437Z,75.6
2017-05-14T05:28:49.584Z,75.4
2017-05-14T05:29:15.698Z,74.93
2017-05-14T05:29:41.808Z,75.02
2017-05-14T05:30:07.935Z,74.83
2017-05-14T05:30:34.064Z,74.64
2017-05-14T05:31:00.154Z,74.93
2017-05-14T05:31:26.251Z,74.93
2017-05-14T05:31:52.358Z,74.83
2017-05-14T05:32:18.451Z,74.54
2017-05-14T05:32:44.544Z,74.35
2017-05-14T05:33:10.652Z,74.73
2017-05-14T05:33:36.774Z,74.16
2017-05-14T05:34:02.863Z,74.54
2017-05-14T05:34:28.971Z,74.64
2017-05-14T05:34:55.069Z,75.12
2017-05-14T05:35:21.185Z,74.83
2017-05-14T05:35:47.288Z,74.83
2017-05-14T05:36:13.407Z,74.83
2017-05-14T05:36:39.538Z,75.31
2017-05-14T05:37:05.664Z,75.12
2017-05-14T05:37:31.757Z,75.02